Time;durP1;ratioP1;P1;durP2;ratioP2;P2;SDS_P1;SDS_P2;PMS_P1;PMS_P2;Temp;Humidity;BMP_temperature;BMP_pressure;BME280_temperature;BME280_humidity;BME280_pressure;Samples;Min_cycle;Max_cycle;Signal;HPM_P1;HPM_P2
2022/09/17 00:00:17;;;;;;;1.10;0.93;;;10.20;99.90;;;;;;5053972;28;20208;-68
2022/09/17 00:02:51;;;;;;;1.05;0.93;;;10.20;99.90;;;;;;5053439;28;20229;-68
2022/09/17 00:05:17;;;;;;;1.00;0.90;;;10.20;99.90;;;;;;5053683;28;20207;-68
2022/09/17 00:07:44;;;;;;;1.65;0.98;;;10.20;99.90;;;;;;5054106;28;20673;-68
2022/09/17 00:10:11;;;;;;;1.13;0.85;;;10.20;99.90;;;;;;5053579;28;20202;-68
2022/09/17 00:12:37;;;;;;;1.75;1.00;;;10.20;99.90;;;;;;5053457;28;20226;-68
2022/09/17 00:15:05;;;;;;;0.93;0.82;;;10.20;99.90;;;;;;5053762;28;20201;-68
2022/09/17 00:17:31;;;;;;;2.00;1.50;;;10.20;99.90;;;;;;5053712;28;20205;-68
2022/09/17 00:19:59;;;;;;;1.80;1.00;;;10.10;99.90;;;;;;5053871;28;20202;-68
2022/09/17 00:22:26;;;;;;;1.30;0.90;;;10.10;99.90;;;;;;5052665;28;20560;-68
2022/09/17 00:24:53;;;;;;;6.05;1.70;;;10.10;99.90;;;;;;5053661;28;20222;-68
2022/09/17 00:27:19;;;;;;;1.20;0.90;;;10.10;99.90;;;;;;5053251;28;20212;-68
2022/09/17 00:29:48;;;;;;;1.30;1.10;;;10.10;99.90;;;;;;5053578;28;20209;-68
2022/09/17 00:32:14;;;;;;;1.23;1.13;;;10.10;99.90;;;;;;5052441;28;20208;-68
2022/09/17 00:34:42;;;;;;;1.33;1.00;;;10.00;99.90;;;;;;5053508;28;20205;-68
2022/09/17 00:37:10;;;;;;;1.65;1.13;;;10.10;99.90;;;;;;5053347;28;20209;-69
2022/09/17 00:39:37;;;;;;;1.20;1.10;;;10.00;99.90;;;;;;5052955;28;20201;-68
2022/09/17 00:42:09;;;;;;;1.35;1.00;;;10.00;99.90;;;;;;5052852;28;20208;-68
2022/09/17 00:44:44;;;;;;;1.35;1.25;;;10.10;99.90;;;;;;5052288;28;20724;-68
2022/09/17 00:47:19;;;;;;;1.67;1.10;;;10.00;99.90;;;;;;5053109;28;20292;-68
2022/09/17 00:49:47;;;;;;;1.20;1.10;;;10.00;99.90;;;;;;5053033;28;20211;-68
2022/09/17 00:52:17;;;;;;;1.90;1.10;;;10.10;99.90;;;;;;5052584;28;20217;-68
2022/09/17 00:54:52;;;;;;;1.25;0.95;;;10.00;99.90;;;;;;5052913;28;20202;-69
2022/09/17 00:57:19;;;;;;;3.17;1.10;;;10.10;99.90;;;;;;5052966;28;20221;-68
2022/09/17 00:59:46;;;;;;;1.30;1.20;;;10.10;99.90;;;;;;5053073;28;20303;-68
2022/09/17 01:02:13;;;;;;;1.25;1.15;;;10.10;99.90;;;;;;5051994;28;20576;-68
2022/09/17 01:04:39;;;;;;;1.60;1.13;;;10.10;99.90;;;;;;5052841;28;20326;-68
2022/09/17 01:07:11;;;;;;;1.38;1.17;;;10.10;99.90;;;;;;5052557;28;20206;-68
2022/09/17 01:09:47;;;;;;;1.58;1.23;;;10.10;99.90;;;;;;5052906;28;20209;-68
2022/09/17 01:12:43;;;;;;;1.45;1.20;;;10.10;99.90;;;;;;5051667;28;20205;-69
2022/09/17 01:15:21;;;;;;;1.63;1.40;;;10.10;99.90;;;;;;5052754;28;20215;-68
2022/09/17 01:17:58;;;;;;;4.05;1.40;;;10.10;99.90;;;;;;5052489;28;20209;-68
2022/09/17 01:21:16;;;;;;;1.45;1.20;;;10.10;99.90;;;;;;5052562;28;20201;-69
2022/09/17 01:24:10;;;;;;;1.50;1.10;;;10.10;99.90;;;;;;5052168;28;20510;-69
2022/09/17 01:27:04;;;;;;;1.20;1.08;;;10.00;99.90;;;;;;5052595;28;20204;-68
2022/09/17 01:29:49;;;;;;;2.35;1.45;;;10.00;99.90;;;;;;5052143;28;20671;-68
2022/09/17 01:32:24;;;;;;;1.20;1.10;;;10.00;99.90;;;;;;5051637;28;20216;-68
2022/09/17 01:34:57;;;;;;;2.22;1.58;;;10.00;99.90;;;;;;5052186;28;20199;-68
2022/09/17 01:37:30;;;;;;;2.55;1.40;;;10.00;99.90;;;;;;5052193;28;20208;-68
2022/09/17 01:40:03;;;;;;;1.70;1.20;;;10.00;99.90;;;;;;5051933;28;20218;-69
2022/09/17 01:42:36;;;;;;;1.98;1.30;;;10.00;99.90;;;;;;5051597;28;20631;-68
2022/09/17 01:45:08;;;;;;;2.90;1.35;;;9.90;99.90;;;;;;5051952;28;20228;-68
2022/09/17 01:47:39;;;;;;;1.73;1.00;;;10.00;99.90;;;;;;5052312;28;20206;-68
2022/09/17 01:50:11;;;;;;;1.48;1.10;;;10.00;99.90;;;;;;5051936;28;20213;-68
2022/09/17 01:52:41;;;;;;;1.55;1.17;;;9.90;99.90;;;;;;5051097;28;20221;-68
2022/09/17 01:55:11;;;;;;;1.25;1.10;;;9.90;99.90;;;;;;5051449;28;20205;-68
2022/09/17 01:57:45;;;;;;;2.40;1.50;;;9.90;99.90;;;;;;5051299;28;20213;-68
2022/09/17 02:00:16;;;;;;;1.77;1.40;;;9.90;99.90;;;;;;5051737;28;20212;-68
2022/09/17 02:02:48;;;;;;;1.35;1.23;;;9.90;99.90;;;;;;5050822;28;20233;-68
2022/09/17 02:05:19;;;;;;;1.90;1.20;;;9.90;99.90;;;;;;5051584;28;20220;-68
2022/09/17 02:07:51;;;;;;;2.03;1.40;;;9.90;99.90;;;;;;5051515;28;20223;-68
2022/09/17 02:10:20;;;;;;;1.83;1.17;;;9.90;99.90;;;;;;5051488;28;20630;-68
2022/09/17 02:12:56;;;;;;;1.60;1.15;;;9.90;99.90;;;;;;5050771;28;20224;-68
2022/09/17 02:15:26;;;;;;;1.38;1.13;;;9.90;99.90;;;;;;5051589;28;20201;-68
2022/09/17 02:17:59;;;;;;;1.73;1.63;;;9.90;99.90;;;;;;5051659;28;20205;-68
2022/09/17 02:20:32;;;;;;;3.83;1.25;;;9.80;99.90;;;;;;5051081;28;20206;-69
2022/09/17 02:23:04;;;;;;;1.40;1.30;;;9.80;99.90;;;;;;5050789;28;20632;-68
2022/09/17 02:25:36;;;;;;;1.40;1.20;;;9.80;99.90;;;;;;5050913;28;20246;-68
2022/09/17 02:28:11;;;;;;;1.10;1.00;;;9.80;99.90;;;;;;5051629;28;20229;-68
2022/09/17 02:30:38;;;;;;;1.50;1.40;;;9.80;99.90;;;;;;5051327;28;20552;-68
2022/09/17 02:33:09;;;;;;;3.50;1.55;;;9.80;99.90;;;;;;5050605;28;20246;-68
2022/09/17 02:35:37;;;;;;;1.50;1.33;;;9.80;99.90;;;;;;5051230;28;20310;-68
2022/09/17 02:38:05;;;;;;;3.47;1.40;;;9.80;99.90;;;;;;5051196;28;20229;-68
2022/09/17 02:40:38;;;;;;;2.45;1.85;;;9.80;99.90;;;;;;5050820;28;20209;-69
2022/09/17 02:43:12;;;;;;;3.05;1.52;;;9.80;99.90;;;;;;5050478;28;20251;-68
2022/09/17 02:45:49;;;;;;;2.13;1.50;;;9.80;99.90;;;;;;5051128;28;20228;-69
2022/09/17 02:49:00;;;;;;;1.90;1.35;;;9.80;99.90;;;;;;5050647;28;20206;-68
2022/09/17 02:51:36;;;;;;;1.20;1.10;;;9.80;99.90;;;;;;5035205;28;20204;-68
2022/09/17 02:54:14;;;;;;;1.88;1.42;;;9.80;99.90;;;;;;5050798;28;20231;-68
2022/09/17 02:56:46;;;;;;;1.50;1.35;;;9.80;99.90;;;;;;5050985;28;20212;-68
2022/09/17 02:59:19;;;;;;;2.80;1.13;;;9.80;99.90;;;;;;5050390;28;20701;-68
2022/09/17 03:01:50;;;;;;;1.85;1.50;;;9.80;99.90;;;;;;5050273;28;20244;-68
2022/09/17 03:04:21;;;;;;;1.63;1.10;;;9.80;99.90;;;;;;5050319;28;20232;-68
2022/09/17 03:06:48;;;;;;;1.60;1.50;;;9.80;99.90;;;;;;5050766;28;20253;-69
2022/09/17 03:09:15;;;;;;;2.28;1.63;;;9.80;99.90;;;;;;5050470;28;20248;-68
2022/09/17 03:11:42;;;;;;;5.97;1.20;;;9.80;99.90;;;;;;5050404;28;20612;-68
2022/09/17 03:14:09;;;;;;;1.85;1.02;;;9.80;99.90;;;;;;5050666;28;20592;-68
2022/09/17 03:16:36;;;;;;;2.70;1.15;;;9.70;99.90;;;;;;5050626;28;20198;-68
2022/09/17 03:19:02;;;;;;;1.85;1.20;;;9.70;99.90;;;;;;5050611;28;20204;-68
2022/09/17 03:21:30;;;;;;;3.03;1.50;;;9.70;99.90;;;;;;5049732;28;20201;-68
2022/09/17 03:23:59;;;;;;;3.72;1.80;;;9.70;99.90;;;;;;5050569;28;20264;-68
2022/09/17 03:26:25;;;;;;;1.60;1.50;;;9.60;99.90;;;;;;5050071;28;20205;-68
2022/09/17 03:28:52;;;;;;;1.40;1.30;;;9.60;99.90;;;;;;5050679;28;20673;-68
2022/09/17 03:31:19;;;;;;;2.05;1.23;;;9.60;99.90;;;;;;5049546;28;20230;-68
2022/09/17 03:33:45;;;;;;;3.63;1.77;;;9.60;99.90;;;;;;5050331;28;20232;-68
2022/09/17 03:36:12;;;;;;;2.65;1.30;;;9.60;99.90;;;;;;5050334;28;20209;-68
2022/09/17 03:38:40;;;;;;;1.73;1.40;;;9.60;99.90;;;;;;5050140;28;20207;-68
2022/09/17 03:41:07;;;;;;;2.33;1.50;;;9.60;99.90;;;;;;5050346;28;20664;-68
2022/09/17 03:43:34;;;;;;;1.20;1.10;;;9.60;99.90;;;;;;5049623;28;20227;-68
2022/09/17 03:46:01;;;;;;;1.25;1.15;;;9.60;99.90;;;;;;5050409;28;20221;-68
2022/09/17 03:48:29;;;;;;;2.45;1.40;;;9.60;99.90;;;;;;5049844;28;20232;-68
2022/09/17 03:50:55;;;;;;;2.28;1.55;;;9.60;99.90;;;;;;5050341;28;20203;-68
2022/09/17 03:53:22;;;;;;;1.55;1.45;;;9.60;99.90;;;;;;5049488;28;20233;-68
2022/09/17 03:55:50;;;;;;;1.35;1.25;;;9.60;99.90;;;;;;5050015;28;20215;-67
2022/09/17 03:58:17;;;;;;;1.23;1.10;;;9.60;99.90;;;;;;5050020;28;20219;-68
2022/09/17 04:00:44;;;;;;;2.17;1.05;;;9.60;99.90;;;;;;5050211;28;20617;-68
2022/09/17 04:03:11;;;;;;;1.40;1.25;;;9.60;99.90;;;;;;5049472;28;20236;-68
2022/09/17 04:05:38;;;;;;;3.10;1.25;;;9.50;99.90;;;;;;5049816;28;20221;-68
2022/09/17 04:08:04;;;;;;;1.38;1.23;;;9.50;99.90;;;;;;5050256;28;20211;-68
2022/09/17 04:10:31;;;;;;;4.68;1.25;;;9.50;99.90;;;;;;5049625;28;20215;-68
2022/09/17 04:12:59;;;;;;;1.85;1.30;;;9.50;99.90;;;;;;5049541;28;20231;-68
2022/09/17 04:15:26;;;;;;;3.15;1.50;;;9.40;99.90;;;;;;5049856;28;20206;-68
2022/09/17 04:17:56;;;;;;;2.55;1.65;;;9.50;99.90;;;;;;5049838;28;20790;-68
2022/09/17 04:20:23;;;;;;;1.90;1.20;;;9.50;99.90;;;;;;5052795;28;20212;-68
2022/09/17 04:22:49;;;;;;;1.38;1.00;;;9.40;99.90;;;;;;5052993;28;20587;-68
2022/09/17 04:25:16;;;;;;;2.25;1.50;;;9.40;99.90;;;;;;5053574;28;20230;-68
2022/09/17 04:27:44;;;;;;;1.67;1.15;;;9.40;99.90;;;;;;5053521;28;20205;-68
2022/09/17 04:30:13;;;;;;;1.90;1.40;;;9.40;99.90;;;;;;5053539;28;20204;-68
2022/09/17 04:32:40;;;;;;;1.45;1.23;;;9.40;99.90;;;;;;5052843;28;20227;-68
2022/09/17 04:35:07;;;;;;;1.48;1.20;;;9.40;99.90;;;;;;5053142;28;20617;-68
2022/09/17 04:37:34;;;;;;;1.88;1.20;;;9.40;99.90;;;;;;5053266;28;20676;-68
2022/09/17 04:40:01;;;;;;;4.38;1.98;;;9.40;99.90;;;;;;5053168;28;20209;-68
2022/09/17 04:42:27;;;;;;;1.70;1.25;;;9.40;99.90;;;;;;5052559;28;20209;-68
2022/09/17 04:44:54;;;;;;;2.05;1.40;;;9.30;99.90;;;;;;5051987;28;20218;-68
2022/09/17 04:47:22;;;;;;;2.55;1.23;;;9.30;99.90;;;;;;5053125;28;20212;-68
2022/09/17 04:49:49;;;;;;;2.30;1.38;;;9.30;99.90;;;;;;5052991;28;20204;-67
2022/09/17 04:52:16;;;;;;;1.77;0.93;;;9.30;99.90;;;;;;5052462;28;20294;-68
2022/09/17 04:54:42;;;;;;;3.58;1.30;;;9.30;99.90;;;;;;5053141;28;20201;-68
2022/09/17 04:57:09;;;;;;;1.83;1.40;;;9.30;99.90;;;;;;5052706;28;20706;-69
2022/09/17 04:59:36;;;;;;;2.03;1.27;;;9.30;99.90;;;;;;5053000;28;20207;-68
2022/09/17 05:02:02;;;;;;;1.45;1.00;;;9.30;99.90;;;;;;5052216;28;20582;-68
2022/09/17 05:04:30;;;;;;;2.90;1.13;;;9.20;99.90;;;;;;5052509;28;20236;-68
2022/09/17 05:06:57;;;;;;;1.92;1.10;;;9.30;99.90;;;;;;5052850;28;20213;-68
2022/09/17 05:09:24;;;;;;;6.90;1.42;;;9.30;99.90;;;;;;5052597;28;20696;-68
2022/09/17 05:11:50;;;;;;;1.95;1.58;;;9.30;99.90;;;;;;5052376;28;20199;-68
2022/09/17 05:14:17;;;;;;;5.93;2.00;;;9.30;99.90;;;;;;5052397;28;20232;-68
2022/09/17 05:16:44;;;;;;;1.80;1.23;;;9.30;99.90;;;;;;5052811;28;20208;-68
2022/09/17 05:19:10;;;;;;;2.75;1.10;;;9.30;99.90;;;;;;5052242;28;20679;-68
2022/09/17 05:21:38;;;;;;;2.00;1.40;;;9.30;99.90;;;;;;5051886;28;20208;-68
2022/09/17 05:24:05;;;;;;;2.63;1.45;;;9.30;99.90;;;;;;5052422;28;20232;-68
2022/09/17 05:26:32;;;;;;;2.28;1.40;;;9.20;99.90;;;;;;5052344;28;20235;-68
2022/09/17 05:28:59;;;;;;;3.80;1.60;;;9.20;99.90;;;;;;5052508;28;20208;-68
2022/09/17 05:31:25;;;;;;;2.00;1.30;;;9.20;99.90;;;;;;5051401;28;20242;-68
2022/09/17 05:33:52;;;;;;;5.63;1.83;;;9.30;99.90;;;;;;5052328;28;20232;-68
2022/09/17 05:36:19;;;;;;;2.05;1.40;;;9.30;99.90;;;;;;5051941;28;20209;-68
2022/09/17 05:38:47;;;;;;;3.35;1.35;;;9.30;99.90;;;;;;5052335;28;20246;-69
2022/09/17 05:41:14;;;;;;;1.38;1.25;;;9.30;99.90;;;;;;5051509;28;20214;-68
2022/09/17 05:43:42;;;;;;;1.92;1.35;;;9.30;99.90;;;;;;5051995;28;20220;-68
2022/09/17 05:46:09;;;;;;;6.88;1.85;;;9.30;99.90;;;;;;5051932;28;20230;-68
2022/09/17 05:48:36;;;;;;;3.97;1.88;;;9.30;99.90;;;;;;5052058;28;20208;-69
2022/09/17 05:51:03;;;;;;;2.03;1.38;;;9.40;99.90;;;;;;5052204;28;20278;-69
2022/09/17 05:55:59;;;;;;;2.60;1.45;;;9.40;99.90;;;;;;5068674;28;20223;-67
2022/09/17 05:58:28;;;;;;;1.95;1.50;;;9.40;99.90;;;;;;5071743;28;20206;-67
2022/09/17 06:00:54;;;;;;;2.95;1.55;;;9.40;99.90;;;;;;5071856;28;20210;-70
2022/09/17 06:03:22;;;;;;;1.83;1.45;;;9.40;99.90;;;;;;5070934;28;20232;-67
2022/09/17 06:05:54;;;;;;;4.40;1.90;;;9.40;99.90;;;;;;5070920;28;20829;-66
2022/09/17 06:08:21;;;;;;;2.25;1.50;;;9.40;99.90;;;;;;5071453;28;20201;-67
2022/09/17 06:10:48;;;;;;;2.83;1.60;;;9.40;99.90;;;;;;5071317;28;20205;-67
2022/09/17 06:13:16;;;;;;;3.20;1.38;;;9.50;99.90;;;;;;5071027;28;20221;-67
2022/09/17 06:15:42;;;;;;;1.85;1.35;;;9.60;99.90;;;;;;5071021;28;20715;-67
2022/09/17 06:18:09;;;;;;;5.38;1.42;;;9.90;99.90;;;;;;5071498;28;20587;-67
2022/09/17 06:20:36;;;;;;;3.60;1.40;;;9.90;99.90;;;;;;5070979;28;20215;-67
2022/09/17 06:23:02;;;;;;;2.65;1.52;;;10.10;99.90;;;;;;5070815;28;20224;-67
2022/09/17 06:25:30;;;;;;;3.13;1.90;;;10.20;99.90;;;;;;5067433;28;20223;-67
2022/09/17 06:27:57;;;;;;;3.70;1.80;;;10.30;99.90;;;;;;5067223;28;20201;-67
2022/09/17 06:30:26;;;;;;;4.03;1.88;;;10.30;99.90;;;;;;5067208;28;20208;-67
2022/09/17 06:32:53;;;;;;;1.63;1.50;;;10.20;99.90;;;;;;5066136;28;20231;-68
2022/09/17 06:35:19;;;;;;;4.38;1.40;;;10.20;99.90;;;;;;5067211;28;20600;-68
2022/09/17 06:37:46;;;;;;;3.95;1.40;;;10.10;99.90;;;;;;5066687;28;20590;-67
2022/09/17 06:40:13;;;;;;;1.65;1.25;;;10.10;99.90;;;;;;5067148;28;20631;-67
2022/09/17 06:42:40;;;;;;;2.28;1.88;;;10.10;99.90;;;;;;5066023;28;20227;-67
2022/09/17 06:45:07;;;;;;;1.90;1.80;;;10.10;99.90;;;;;;5066644;28;20739;-67
2022/09/17 06:47:35;;;;;;;3.50;1.60;;;10.00;99.90;;;;;;5067071;28;20236;-67
2022/09/17 06:50:02;;;;;;;3.97;1.70;;;10.10;99.90;;;;;;5066802;28;20681;-67
2022/09/17 06:52:29;;;;;;;3.75;1.60;;;10.00;99.90;;;;;;5066389;28;20812;-67
2022/09/17 06:54:56;;;;;;;1.52;1.42;;;10.00;99.90;;;;;;5066406;28;20281;-67
2022/09/17 06:57:23;;;;;;;1.95;1.75;;;10.00;99.90;;;;;;5066783;28;20204;-67
2022/09/17 06:59:50;;;;;;;2.30;1.70;;;10.00;99.90;;;;;;5066474;28;20200;-67
2022/09/17 07:02:17;;;;;;;2.22;1.70;;;10.10;99.90;;;;;;5065962;28;20209;-67
2022/09/17 07:04:45;;;;;;;4.68;2.00;;;10.10;99.90;;;;;;5066652;28;20205;-67
2022/09/17 07:07:12;;;;;;;5.78;1.75;;;10.10;99.90;;;;;;5066300;28;20296;-69
2022/09/17 07:09:38;;;;;;;2.00;1.70;;;10.20;99.90;;;;;;5066760;28;20235;-67
2022/09/17 07:12:08;;;;;;;2.78;1.75;;;10.10;99.90;;;;;;5065794;28;20212;-68
2022/09/17 07:14:34;;;;;;;1.60;1.40;;;10.10;99.90;;;;;;5066274;28;20216;-67
2022/09/17 07:17:01;;;;;;;2.05;1.63;;;10.00;99.90;;;;;;5066356;28;20204;-67
2022/09/17 07:19:28;;;;;;;2.90;2.20;;;10.00;99.90;;;;;;5066758;28;20204;-67
2022/09/17 07:21:56;;;;;;;2.95;1.60;;;10.00;99.90;;;;;;5065987;28;20204;-67
2022/09/17 07:24:22;;;;;;;2.45;1.65;;;10.00;99.90;;;;;;5068983;28;20749;-67
2022/09/17 07:26:50;;;;;;;3.15;1.90;;;9.90;99.90;;;;;;5070113;28;20546;-67
2022/09/17 07:29:17;;;;;;;2.17;1.98;;;9.90;99.90;;;;;;5068560;28;20263;-67
2022/09/17 07:31:44;;;;;;;3.40;1.55;;;9.90;99.90;;;;;;5065779;28;20885;-66
2022/09/17 07:34:11;;;;;;;2.40;1.60;;;9.90;99.90;;;;;;5066136;28;20817;-67
2022/09/17 07:36:37;;;;;;;3.08;1.70;;;9.90;99.90;;;;;;5058259;28;20195;-67
2022/09/17 07:39:06;;;;;;;3.58;1.52;;;9.90;99.90;;;;;;5034960;28;20205;-67
2022/09/17 07:41:33;;;;;;;1.88;1.50;;;9.90;99.90;;;;;;5025676;28;20214;-67
2022/09/17 07:44:01;;;;;;;1.33;1.23;;;9.90;99.90;;;;;;5026004;28;20275;-67
2022/09/17 07:46:28;;;;;;;1.52;1.17;;;9.90;99.90;;;;;;5025968;28;20250;-68
2022/09/17 07:48:55;;;;;;;1.23;1.13;;;10.00;99.90;;;;;;5025762;28;20209;-67
2022/09/17 07:51:23;;;;;;;3.53;1.90;;;10.00;99.90;;;;;;5028056;28;20683;-67
2022/09/17 07:53:51;;;;;;;4.85;1.55;;;10.00;99.90;;;;;;5046019;28;20221;-68
2022/09/17 07:56:20;;;;;;;1.33;1.23;;;10.00;99.90;;;;;;5053547;28;20637;-68
2022/09/17 07:58:46;;;;;;;2.10;1.20;;;9.90;99.90;;;;;;5053104;28;20217;-68
2022/09/17 08:01:15;;;;;;;1.60;1.50;;;9.90;99.90;;;;;;5053005;28;20249;-67
2022/09/17 08:03:43;;;;;;;2.08;1.73;;;9.80;99.90;;;;;;5053399;28;20221;-67
2022/09/17 08:06:10;;;;;;;1.35;1.17;;;9.80;99.90;;;;;;5053015;28;20312;-68
2022/09/17 08:08:38;;;;;;;1.70;1.35;;;9.80;99.90;;;;;;5053253;28;20211;-68
2022/09/17 08:11:07;;;;;;;1.30;1.10;;;9.70;99.90;;;;;;5052903;28;20294;-68
2022/09/17 08:13:35;;;;;;;2.25;1.40;;;9.70;99.90;;;;;;5056882;28;20249;-68
2022/09/17 08:16:04;;;;;;;1.70;1.60;;;9.80;99.90;;;;;;5073738;28;20579;-68
2022/09/17 08:18:32;;;;;;;3.67;2.10;;;9.80;99.90;;;;;;5074274;28;20223;-68
2022/09/17 08:20:59;;;;;;;4.28;1.70;;;9.80;99.90;;;;;;5073411;28;20207;-68
2022/09/17 08:23:26;;;;;;;16.50;2.35;;;9.80;99.90;;;;;;5073078;28;20224;-68
2022/09/17 08:25:54;;;;;;;1.85;1.50;;;9.80;99.90;;;;;;5073568;28;20224;-68
2022/09/17 08:28:21;;;;;;;2.88;1.50;;;9.80;99.90;;;;;;5073524;28;20200;-68
2022/09/17 08:30:49;;;;;;;2.10;1.55;;;9.80;99.90;;;;;;5058876;28;20203;-68
2022/09/17 08:33:16;;;;;;;2.22;1.65;;;9.80;99.90;;;;;;5053146;28;20229;-68
2022/09/17 08:35:43;;;;;;;2.70;1.95;;;9.90;99.90;;;;;;5052946;28;20240;-68
2022/09/17 08:38:10;;;;;;;2.25;1.88;;;10.00;99.90;;;;;;5053530;28;20208;-68
2022/09/17 08:40:43;;;;;;;1.80;1.50;;;10.00;99.90;;;;;;5052936;28;20200;-68
2022/09/17 08:43:16;;;;;;;2.72;1.42;;;10.10;99.90;;;;;;5052815;28;20282;-68
2022/09/17 08:45:42;;;;;;;2.13;1.80;;;10.20;99.90;;;;;;5052942;28;20224;-68
2022/09/17 08:48:14;;;;;;;2.15;1.50;;;10.30;99.90;;;;;;5039225;28;20209;-68
2022/09/17 08:50:41;;;;;;;2.45;1.45;;;10.40;99.90;;;;;;5033125;28;20239;-68
2022/09/17 08:53:26;;;;;;;2.10;1.70;;;10.50;99.90;;;;;;5032564;28;20222;-68
2022/09/17 08:56:01;;;;;;;2.85;1.70;;;10.50;99.90;;;;;;5033572;28;20210;-68
2022/09/17 08:58:46;;;;;;;2.33;1.88;;;10.60;99.90;;;;;;5046718;28;20292;-67
2022/09/17 09:01:25;;;;;;;4.82;1.88;;;10.60;99.90;;;;;;5052679;28;20263;-67
2022/09/17 09:04:12;;;;;;;2.33;1.70;;;10.70;99.90;;;;;;5052700;28;20225;-68
2022/09/17 09:06:44;;;;;;;6.65;1.92;;;10.90;99.90;;;;;;5052385;28;20217;-68
2022/09/17 09:09:14;;;;;;;1.75;1.60;;;11.30;99.90;;;;;;5052331;28;20209;-66
2022/09/17 09:11:43;;;;;;;2.78;2.05;;;11.60;99.90;;;;;;5052409;28;20209;-68
2022/09/17 09:14:18;;;;;;;10.38;2.13;;;11.90;99.90;;;;;;5052348;28;20225;-67
2022/09/17 09:16:46;;;;;;;3.03;1.40;;;11.90;99.90;;;;;;5049510;28;20198;-67
2022/09/17 09:19:21;;;;;;;3.72;1.80;;;11.90;99.90;;;;;;5052708;28;20237;-67
2022/09/17 09:22:00;;;;;;;3.33;1.70;;;11.80;99.90;;;;;;5051700;28;20213;-69
2022/09/17 09:24:38;;;;;;;3.67;1.92;;;11.80;99.90;;;;;;5052552;28;20738;-68
2022/09/17 09:27:16;;;;;;;3.95;1.60;;;11.80;99.90;;;;;;5052367;28;20221;-68
2022/09/17 09:29:51;;;;;;;4.03;1.75;;;11.70;99.90;;;;;;5052640;28;20298;-68
2022/09/17 09:32:33;;;;;;;5.07;2.10;;;11.70;99.90;;;;;;5051838;28;20212;-68
2022/09/17 09:35:03;;;;;;;5.20;1.95;;;11.80;99.90;;;;;;5052440;28;20228;-67
2022/09/17 09:37:34;;;;;;;3.60;1.48;;;11.80;99.90;;;;;;5052168;28;20201;-67
2022/09/17 09:40:07;;;;;;;4.75;1.80;;;11.90;99.90;;;;;;5052233;28;20206;-67
2022/09/17 09:42:36;;;;;;;4.32;1.98;;;11.90;99.90;;;;;;5051337;28;20700;-67
2022/09/17 09:45:13;;;;;;;5.00;2.05;;;11.90;99.90;;;;;;5052024;28;20205;-67
2022/09/17 09:47:53;;;;;;;5.55;2.08;;;11.90;99.90;;;;;;5044913;28;20214;-67
2022/09/17 09:50:41;;;;;;;6.32;1.65;;;12.00;99.90;;;;;;5051148;28;20293;-67
2022/09/17 09:53:22;;;;;;;2.58;1.40;;;12.20;99.90;;;;;;5050929;28;20232;-67
2022/09/17 09:56:06;;;;;;;3.00;1.85;;;12.30;99.90;;;;;;5051610;28;20212;-67
2022/09/17 09:58:36;;;;;;;3.53;1.85;;;12.30;99.90;;;;;;5051925;28;20198;-67
2022/09/17 10:01:03;;;;;;;3.38;2.00;;;12.20;99.90;;;;;;5051177;28;20198;-67
2022/09/17 10:03:31;;;;;;;2.20;1.33;;;12.10;99.90;;;;;;5051099;28;20237;-67
2022/09/17 10:06:02;;;;;;;1.88;1.77;;;12.10;99.90;;;;;;5051237;28;20206;-67
2022/09/17 10:08:32;;;;;;;5.05;1.70;;;11.90;99.90;;;;;;5050573;28;20212;-67
2022/09/17 10:11:01;;;;;;;2.50;1.85;;;12.00;99.90;;;;;;5045681;28;20206;-67
2022/09/17 10:13:30;;;;;;;1.60;1.42;;;12.10;99.90;;;;;;5050614;28;20224;-67
2022/09/17 10:15:57;;;;;;;2.53;1.70;;;12.30;99.90;;;;;;5051161;28;20208;-67
2022/09/17 10:18:25;;;;;;;5.37;2.10;;;12.40;99.90;;;;;;5050599;28;20460;-67
2022/09/17 10:20:58;;;;;;;2.30;1.60;;;12.60;99.90;;;;;;5051208;28;20464;-67
2022/09/17 10:23:28;;;;;;;3.70;1.80;;;12.60;99.90;;;;;;5050336;28;20536;-67
2022/09/17 10:25:56;;;;;;;3.93;1.40;;;12.70;99.90;;;;;;5051110;28;20296;-68
2022/09/17 10:28:33;;;;;;;3.53;1.90;;;12.70;99.90;;;;;;5050781;28;20955;-67
2022/09/17 10:31:03;;;;;;;1.63;1.53;;;12.70;99.90;;;;;;5051025;28;20270;-67
2022/09/17 10:33:31;;;;;;;2.23;1.63;;;12.80;99.90;;;;;;5050437;28;20487;-69
2022/09/17 10:36:01;;;;;;;2.17;1.53;;;13.20;99.90;;;;;;5050688;28;20517;-68
2022/09/17 10:38:36;;;;;;;3.03;1.70;;;13.60;99.90;;;;;;5051071;28;20830;-68
2022/09/17 10:41:13;;;;;;;3.40;1.50;;;14.00;99.90;;;;;;5050200;28;20956;-68
2022/09/17 10:43:40;;;;;;;1.50;1.37;;;14.20;99.90;;;;;;5052154;28;20480;-69
2022/09/17 10:46:10;;;;;;;4.80;1.67;;;14.40;99.90;;;;;;5050788;28;20467;-68
2022/09/17 10:48:42;;;;;;;1.23;1.13;;;14.40;99.90;;;;;;5050921;28;20959;-68
2022/09/17 10:51:10;;;;;;;2.50;1.40;;;14.20;99.90;;;;;;5049377;28;20562;-68
2022/09/17 10:54:04;;;;;;;2.67;1.63;;;14.20;99.90;;;;;;5050036;28;20484;-68
2022/09/17 10:56:36;;;;;;;2.00;1.17;;;14.20;99.90;;;;;;5050737;28;20463;-68
2022/09/17 10:59:26;;;;;;;2.07;1.30;;;14.40;99.90;;;;;;5049436;28;20464;-68
2022/09/17 11:02:02;;;;;;;1.77;1.17;;;14.30;99.90;;;;;;5050029;28;20487;-68
2022/09/17 11:04:36;;;;;;;1.57;1.30;;;14.10;99.90;;;;;;5050182;28;20480;-68
2022/09/17 11:07:18;;;;;;;1.40;1.30;;;14.20;99.90;;;;;;5050486;28;20582;-68
2022/09/17 11:09:53;;;;;;;1.33;1.10;;;14.50;99.90;;;;;;5050214;28;20464;-68
2022/09/17 11:12:30;;;;;;;3.50;1.30;;;14.60;99.90;;;;;;5049817;28;20471;-68
2022/09/17 11:15:03;;;;;;;5.73;1.40;;;14.70;99.90;;;;;;5050157;28;20482;-68
2022/09/17 11:17:56;;;;;;;2.10;1.80;;;14.80;99.90;;;;;;5050482;28;20456;-68
2022/09/17 11:20:34;;;;;;;1.83;1.40;;;15.10;99.90;;;;;;5050025;28;20878;-68
2022/09/17 11:23:20;;;;;;;1.30;1.20;;;15.20;99.90;;;;;;5049553;28;20471;-68
2022/09/17 11:25:54;;;;;;;2.30;1.47;;;15.30;99.90;;;;;;5049889;28;20457;-68
2022/09/17 11:28:35;;;;;;;1.30;1.10;;;15.20;99.90;;;;;;5052300;28;20901;-68
2022/09/17 11:31:16;;;;;;;1.90;1.23;;;15.30;99.90;;;;;;5056257;28;20471;-68
2022/09/17 11:34:04;;;;;;;2.10;1.20;;;15.50;99.90;;;;;;5056465;28;20529;-68
2022/09/17 11:36:38;;;;;;;1.70;1.20;;;15.50;99.90;;;;;;5056777;28;20869;-68
2022/09/17 11:39:13;;;;;;;1.20;1.10;;;15.60;99.90;;;;;;5056712;28;20462;-68
2022/09/17 11:41:44;;;;;;;3.73;1.40;;;15.70;99.90;;;;;;5056462;28;20455;-68
2022/09/17 11:44:17;;;;;;;3.13;1.40;;;15.80;99.90;;;;;;5056678;28;20487;-69
2022/09/17 11:46:48;;;;;;;0.97;0.87;;;15.70;99.90;;;;;;5054886;28;20491;-68
2022/09/17 11:49:27;;;;;;;4.60;1.47;;;15.40;99.90;;;;;;5056421;28;20517;-68
2022/09/17 11:51:58;;;;;;;2.90;1.30;;;15.10;99.90;;;;;;5056481;28;20487;-68
2022/09/17 11:54:29;;;;;;;2.37;1.30;;;15.00;99.90;;;;;;5103795;22;20491;-90
2022/09/17 11:57:09;;;;;;;1.37;1.00;;;15.00;99.90;;;;;;5059858;28;20448;-91
2022/09/17 11:59:40;;;;;;;1.30;1.10;;;15.10;99.90;;;;;;5039699;28;20544;-92
2022/09/17 12:02:20;;;;;;;1.40;1.10;;;15.10;99.90;;;;;;5039969;28;20522;-91
2022/09/17 12:04:53;;;;;;;1.20;1.00;;;15.10;99.90;;;;;;5039465;28;20480;-90
2022/09/17 12:14:05;;;;;;;2.30;1.70;;;15.90;99.90;;;;;;5022314;28;20471;-91
2022/09/17 12:16:36;;;;;;;1.60;1.20;;;15.70;99.90;;;;;;5039770;28;20470;-92
2022/09/17 12:19:12;;;;;;;1.27;1.17;;;15.60;99.90;;;;;;5039669;28;20449;-91
2022/09/17 12:21:43;;;;;;;4.23;1.50;;;15.20;99.90;;;;;;5040133;28;20463;-91
2022/09/17 12:24:14;;;;;;;1.67;1.20;;;14.90;99.90;;;;;;5041487;28;20499;-92
2022/09/17 12:26:55;;;;;;;2.03;1.40;;;14.70;99.90;;;;;;5040708;28;20487;-92
2022/09/17 12:29:36;;;;;;;1.40;1.13;;;14.50;99.90;;;;;;5039370;28;20464;-92
2022/09/17 12:32:17;;;;;;;1.10;0.90;;;14.40;99.90;;;;;;5040745;28;20464;-91
2022/09/17 12:34:54;;;;;;;1.67;1.30;;;14.20;99.90;;;;;;5041669;28;20480;-92
2022/09/17 12:37:28;;;;;;;4.50;1.50;;;14.20;99.90;;;;;;5042990;28;20453;-92
2022/09/17 12:40:15;;;;;;;2.73;1.43;;;14.40;99.90;;;;;;5039937;28;20467;-91
2022/09/17 12:43:06;;;;;;;1.70;1.20;;;14.70;99.90;;;;;;5036091;28;20464;-91
2022/09/17 12:46:07;;;;;;;1.83;1.37;;;15.10;99.90;;;;;;5040058;28;20491;-93
2022/09/17 12:48:58;;;;;;;2.00;1.60;;;15.30;99.90;;;;;;5037897;28;20488;-92
2022/09/17 12:51:45;;;;;;;1.60;1.13;;;15.20;99.90;;;;;;5036555;28;20559;-91
2022/09/17 12:54:30;;;;;;;2.33;1.17;;;14.80;99.90;;;;;;5036563;28;20485;-92
2022/09/17 12:57:05;;;;;;;1.33;0.90;;;14.40;99.90;;;;;;5036156;28;20461;-91
2022/09/17 12:59:35;;;;;;;3.37;1.33;;;13.90;99.90;;;;;;5036463;28;20469;-92
2022/09/17 13:02:52;;;;;;;1.27;1.03;;;13.60;99.90;;;;;;5039054;28;20545;-92
2022/09/17 13:09:31;;;;;;;1.70;1.20;;;13.00;99.90;;;;;;5035749;28;20481;-93
2022/09/17 13:12:25;;;;;;;1.57;1.10;;;12.70;99.90;;;;;;5036846;28;20492;-92
2022/09/17 13:15:57;;;;;;;;;;;;;;;;;;;;;
2022/09/17 13:18:29;;;;;;;1.20;0.80;;;12.00;99.90;;;;;;5022007;28;20530;-92
2022/09/17 13:21:05;;;;;;;1.20;1.00;;;11.70;99.90;;;;;;5034900;28;20201;-92
2022/09/17 13:23:39;;;;;;;1.98;1.33;;;11.50;99.90;;;;;;5035050;28;20726;-92
2022/09/17 13:26:08;;;;;;;1.30;1.08;;;11.30;99.90;;;;;;5034652;28;20214;-91
2022/09/17 13:28:39;;;;;;;1.13;1.02;;;11.20;99.90;;;;;;5034770;28;20317;-92